createdAt,value
2022-07-29T00:01:44.549Z,97.20
2022-07-29T00:04:14.613Z,97.40
2022-07-29T00:06:44.074Z,97.50
2022-07-29T00:09:14.244Z,97.40
2022-07-29T00:11:42.942Z,97.90
2022-07-29T00:14:11.907Z,98.10
2022-07-29T00:16:41.312Z,98.50
2022-07-29T00:19:10.015Z,98.10
2022-07-29T00:21:39.725Z,98.20
2022-07-29T00:24:08.902Z,98.20
2022-07-29T00:26:57.678Z,97.80
2022-07-29T00:29:34.894Z,97.90
2022-07-29T00:32:04.666Z,98.00
2022-07-29T00:34:51.493Z,98.30
2022-07-29T00:37:20.329Z,98.10
2022-07-29T00:39:49.038Z,98.20
2022-07-29T00:42:19.400Z,98.00
2022-07-29T00:44:48.168Z,98.20
2022-07-29T00:47:17.108Z,98.00
2022-07-29T00:49:46.372Z,98.50
2022-07-29T00:52:16.842Z,98.30
2022-07-29T00:54:46.335Z,98.40
2022-07-29T00:57:15.715Z,97.80
2022-07-29T00:59:45.834Z,98.40
2022-07-29T01:02:14.575Z,98.40
2022-07-29T01:04:43.704Z,98.60
2022-07-29T01:07:13.789Z,98.60
2022-07-29T01:09:45.745Z,98.30
2022-07-29T01:12:19.757Z,98.50
2022-07-29T01:14:52.194Z,98.70
2022-07-29T01:17:28.377Z,98.30
2022-07-29T01:20:05.767Z,98.10
2022-07-29T01:23:03.534Z,98.40
2022-07-29T01:26:06.502Z,98.10
2022-07-29T01:29:07.627Z,98.20
2022-07-29T01:32:00.561Z,98.20
2022-07-29T01:34:45.261Z,98.00
2022-07-29T01:37:23.544Z,98.40
2022-07-29T01:39:58.556Z,98.30
2022-07-29T01:42:36.436Z,98.40
2022-07-29T01:45:16.682Z,98.80
2022-07-29T01:47:56.558Z,97.60
2022-07-29T01:50:35.603Z,98.10
2022-07-29T01:53:10.861Z,99.10
2022-07-29T01:55:46.685Z,99.50
2022-07-29T01:58:17.988Z,99.60
2022-07-29T02:00:53.067Z,99.60
2022-07-29T02:03:23.285Z,99.60
2022-07-29T02:05:55.219Z,99.70
2022-07-29T02:08:26.465Z,99.70
2022-07-29T02:10:57.771Z,99.70
2022-07-29T02:13:29.945Z,99.50
2022-07-29T02:16:02.336Z,99.90
2022-07-29T02:18:33.092Z,99.80
2022-07-29T02:21:03.695Z,99.30
2022-07-29T02:23:45.303Z,99.50
2022-07-29T02:26:22.545Z,99.90
2022-07-29T02:28:56.350Z,99.80
2022-07-29T02:31:33.662Z,99.50
2022-07-29T02:34:05.604Z,99.50
2022-07-29T02:36:35.543Z,99.30
2022-07-29T02:39:05.876Z,99.80
2022-07-29T02:41:44.822Z,99.90
2022-07-29T02:44:17.101Z,99.90
2022-07-29T02:46:55.814Z,99.90
2022-07-29T02:49:36.678Z,99.90
2022-07-29T02:52:10.822Z,99.90
2022-07-29T02:54:48.293Z,99.90
2022-07-29T02:57:24.555Z,99.90
2022-07-29T02:59:56.568Z,99.90
2022-07-29T03:02:30.377Z,99.90
2022-07-29T03:05:03.964Z,99.90
2022-07-29T03:07:35.984Z,99.90
2022-07-29T03:10:07.170Z,99.90
2022-07-29T03:12:43.178Z,99.90
2022-07-29T03:15:13.437Z,99.90
2022-07-29T03:17:44.470Z,99.90
2022-07-29T03:20:15.708Z,99.90
2022-07-29T03:22:48.140Z,99.90
2022-07-29T03:25:18.712Z,99.90
2022-07-29T03:27:50.501Z,99.90
2022-07-29T03:30:22.107Z,99.90
2022-07-29T03:32:53.727Z,99.90
2022-07-29T03:35:23.791Z,99.90
2022-07-29T03:37:52.572Z,99.90
2022-07-29T03:40:28.277Z,99.90
2022-07-29T03:42:58.712Z,99.90
2022-07-29T03:45:31.379Z,99.90
2022-07-29T03:48:07.881Z,99.90
2022-07-29T03:50:37.934Z,99.90
2022-07-29T03:53:06.909Z,99.90
2022-07-29T03:55:44.027Z,99.90
2022-07-29T03:58:15.699Z,99.90
2022-07-29T04:00:45.936Z,99.90
2022-07-29T04:03:16.567Z,99.90
2022-07-29T04:05:45.286Z,99.90
2022-07-29T04:08:14.009Z,99.90
2022-07-29T04:10:42.803Z,99.90
2022-07-29T04:13:11.501Z,99.90
2022-07-29T04:15:40.424Z,99.90
2022-07-29T04:18:09.065Z,99.90
2022-07-29T04:20:39.241Z,99.90
2022-07-29T04:23:07.975Z,99.90
2022-07-29T04:25:40.916Z,99.90
2022-07-29T04:28:11.171Z,99.40
2022-07-29T04:30:41.407Z,99.00
2022-07-29T04:33:10.463Z,98.50
2022-07-29T04:35:48.174Z,97.60
2022-07-29T04:38:19.349Z,96.40
2022-07-29T04:40:49.634Z,95.30
2022-07-29T04:43:22.532Z,95.00
2022-07-29T04:45:52.076Z,94.60
2022-07-29T04:48:25.325Z,93.40
2022-07-29T04:50:59.055Z,91.80
2022-07-29T04:53:28.152Z,92.50
2022-07-29T04:55:56.996Z,92.20
2022-07-29T04:58:26.040Z,91.40
2022-07-29T05:00:55.030Z,90.80
2022-07-29T05:03:23.731Z,89.50
2022-07-29T05:05:52.594Z,87.80
2022-07-29T05:08:22.775Z,85.10
2022-07-29T05:10:51.629Z,82.70
2022-07-29T05:13:20.410Z,80.30
2022-07-29T05:15:49.222Z,78.10
2022-07-29T05:18:18.019Z,75.40
2022-07-29T05:20:46.950Z,73.30
2022-07-29T05:23:15.922Z,73.10
2022-07-29T05:25:47.398Z,72.10
2022-07-29T05:28:16.684Z,72.60
2022-07-29T05:30:46.648Z,70.00
2022-07-29T05:33:35.633Z,69.20
2022-07-29T05:36:05.297Z,68.10
2022-07-29T05:38:34.044Z,66.60
2022-07-29T05:41:04.677Z,65.60
2022-07-29T05:43:33.642Z,64.60
2022-07-29T05:46:02.851Z,63.80
2022-07-29T05:48:32.047Z,62.90
2022-07-29T05:51:03.289Z,61.70
2022-07-29T05:53:32.041Z,60.80
2022-07-29T05:56:00.931Z,60.10
2022-07-29T05:58:31.142Z,59.80
2022-07-29T06:01:00.365Z,58.30
2022-07-29T06:03:29.797Z,59.00
2022-07-29T06:05:58.483Z,60.50
2022-07-29T06:08:27.197Z,60.30
2022-07-29T06:10:56.021Z,60.20
2022-07-29T06:13:24.805Z,59.80
2022-07-29T06:15:55.080Z,59.70
2022-07-29T06:18:24.938Z,59.20
2022-07-29T06:20:53.803Z,59.80
2022-07-29T06:23:23.495Z,59.50
2022-07-29T06:25:52.188Z,59.10
2022-07-29T06:28:20.976Z,59.30
2022-07-29T06:30:49.799Z,58.30
2022-07-29T06:33:23.086Z,58.80
2022-07-29T06:35:53.327Z,57.80
2022-07-29T06:38:33.943Z,57.90
2022-07-29T06:41:04.335Z,57.60
2022-07-29T06:43:50.207Z,58.10
2022-07-29T06:46:22.084Z,57.80
2022-07-29T06:48:53.878Z,57.10
2022-07-29T06:51:24.101Z,56.70
2022-07-29T06:54:00.422Z,60.00
2022-07-29T06:56:38.965Z,57.80
2022-07-29T06:59:10.249Z,58.60
2022-07-29T07:01:39.974Z,57.70
2022-07-29T07:04:11.104Z,58.40
2022-07-29T07:06:40.359Z,56.80
2022-07-29T07:09:09.204Z,56.40
2022-07-29T07:11:37.903Z,56.90
2022-07-29T07:14:06.693Z,57.00
2022-07-29T07:16:35.927Z,57.60
2022-07-29T07:19:04.845Z,57.50
2022-07-29T07:21:36.556Z,57.30
2022-07-29T07:24:06.405Z,57.20
2022-07-29T07:26:35.211Z,56.80
2022-07-29T07:29:04.100Z,56.70
2022-07-29T07:31:33.201Z,55.20
2022-07-29T07:34:02.122Z,54.90
2022-07-29T07:36:31.070Z,54.80
2022-07-29T07:39:01.266Z,54.50
2022-07-29T07:41:32.454Z,55.60
2022-07-29T07:44:01.489Z,54.40
2022-07-29T07:46:30.483Z,54.50
2022-07-29T07:48:59.454Z,53.50
2022-07-29T07:51:28.268Z,53.30
2022-07-29T07:53:57.089Z,53.20
2022-07-29T07:56:30.711Z,54.40
2022-07-29T07:59:03.506Z,54.40
2022-07-29T08:01:32.305Z,54.70
2022-07-29T08:04:24.941Z,53.70
2022-07-29T08:06:56.685Z,53.70
2022-07-29T08:09:29.805Z,53.40
2022-07-29T08:12:03.428Z,54.30
2022-07-29T08:14:32.829Z,53.90
2022-07-29T08:17:01.673Z,53.70
2022-07-29T08:19:30.463Z,53.80
2022-07-29T08:21:59.198Z,54.10
2022-07-29T08:24:48.321Z,54.00
2022-07-29T08:27:41.866Z,54.20
2022-07-29T08:30:09.496Z,54.80
2022-07-29T08:32:53.276Z,55.50
2022-07-29T08:35:24.444Z,55.80
2022-07-29T08:37:53.509Z,55.40
2022-07-29T08:40:31.995Z,55.10
2022-07-29T08:43:08.559Z,55.20
2022-07-29T08:45:47.513Z,54.60
2022-07-29T08:48:19.508Z,54.40
2022-07-29T08:50:52.412Z,53.90
2022-07-29T08:53:23.306Z,54.20
2022-07-29T08:55:55.339Z,53.70
2022-07-29T08:58:27.803Z,53.10
2022-07-29T09:00:59.787Z,52.90
2022-07-29T09:03:34.904Z,52.60
2022-07-29T09:06:04.745Z,51.80
2022-07-29T09:08:34.884Z,50.10
2022-07-29T09:11:05.567Z,48.60
2022-07-29T09:13:36.347Z,48.80
2022-07-29T09:16:09.355Z,48.30
2022-07-29T09:18:42.467Z,47.90
2022-07-29T09:21:31.806Z,47.20
2022-07-29T09:24:08.043Z,46.40
2022-07-29T09:26:39.719Z,46.00
2022-07-29T09:29:17.340Z,46.30
2022-07-29T09:31:48.333Z,47.50
2022-07-29T09:34:19.599Z,47.50
2022-07-29T09:36:52.473Z,47.70
2022-07-29T09:39:32.198Z,47.70
2022-07-29T09:42:03.893Z,48.00
2022-07-29T09:44:47.125Z,47.90
2022-07-29T09:47:16.405Z,47.60
2022-07-29T09:49:59.430Z,47.80
2022-07-29T09:52:29.344Z,48.00
2022-07-29T09:55:08.371Z,48.40
2022-07-29T09:57:37.401Z,48.00
2022-07-29T10:00:13.392Z,48.00
2022-07-29T10:02:45.905Z,48.40
2022-07-29T10:05:24.126Z,48.10
2022-07-29T10:07:57.775Z,48.10
2022-07-29T10:10:29.578Z,48.30
2022-07-29T10:13:06.967Z,48.40
2022-07-29T10:15:42.091Z,48.10
2022-07-29T10:18:12.551Z,48.40
2022-07-29T10:20:42.105Z,48.60
2022-07-29T10:23:12.297Z,48.80
2022-07-29T10:25:45.909Z,49.00
2022-07-29T10:28:16.778Z,48.60
2022-07-29T10:30:48.713Z,48.40
2022-07-29T10:33:40.193Z,47.30
2022-07-29T10:36:29.768Z,46.70
2022-07-29T10:39:12.693Z,47.50
2022-07-29T10:42:08.304Z,47.60
2022-07-29T10:44:43.236Z,47.70
2022-07-29T10:47:24.456Z,47.50
2022-07-29T10:50:01.469Z,47.00
2022-07-29T10:53:00.972Z,46.70
2022-07-29T10:55:43.711Z,48.00
2022-07-29T10:58:19.688Z,47.90
2022-07-29T11:00:49.787Z,47.50
2022-07-29T11:03:53.749Z,47.40
2022-07-29T11:06:28.212Z,47.00
2022-07-29T11:09:25.733Z,46.80
2022-07-29T11:12:46.994Z,46.80
2022-07-29T11:15:20.117Z,46.90
2022-07-29T11:18:15.154Z,47.00
2022-07-29T11:20:51.024Z,47.80
2022-07-29T11:23:27.664Z,47.30
2022-07-29T11:26:23.131Z,47.30
2022-07-29T11:29:03.778Z,47.60
2022-07-29T11:31:42.874Z,48.00
2022-07-29T11:34:27.964Z,48.70
2022-07-29T11:37:28.136Z,48.70
2022-07-29T11:40:20.282Z,48.50
2022-07-29T11:42:52.800Z,48.50
2022-07-29T11:45:44.052Z,49.20
2022-07-29T11:48:28.383Z,48.80
2022-07-29T11:51:13.622Z,48.80
2022-07-29T11:53:52.521Z,48.50
2022-07-29T11:56:25.847Z,48.70
2022-07-29T11:59:08.526Z,48.80
2022-07-29T12:01:37.650Z,48.80
2022-07-29T12:04:08.003Z,49.50
2022-07-29T12:06:37.156Z,49.80
2022-07-29T12:09:14.383Z,49.60
2022-07-29T12:11:45.074Z,49.00
2022-07-29T12:14:30.539Z,48.80
2022-07-29T12:17:00.922Z,48.70
2022-07-29T12:19:30.151Z,48.60
2022-07-29T12:22:01.122Z,48.30
2022-07-29T12:24:46.418Z,48.30
2022-07-29T12:27:29.499Z,47.90
2022-07-29T12:30:00.846Z,47.50
2022-07-29T12:32:36.197Z,47.00
2022-07-29T12:35:08.989Z,47.00
2022-07-29T12:37:41.257Z,46.50
2022-07-29T12:40:16.770Z,45.90
2022-07-29T12:43:08.848Z,45.80
2022-07-29T12:45:38.208Z,45.80
2022-07-29T12:48:09.680Z,46.50
2022-07-29T12:50:54.169Z,47.00
2022-07-29T12:53:23.029Z,47.30
2022-07-29T12:55:55.582Z,47.50
2022-07-29T12:58:33.360Z,47.50
2022-07-29T13:01:17.331Z,47.80
2022-07-29T13:03:57.713Z,47.90
2022-07-29T13:06:41.104Z,47.80
2022-07-29T13:09:14.465Z,47.50
2022-07-29T13:11:48.869Z,47.70
2022-07-29T13:14:34.241Z,47.80
2022-07-29T13:17:07.139Z,47.60
2022-07-29T13:19:41.322Z,47.70
2022-07-29T13:22:11.863Z,47.90
2022-07-29T13:24:52.574Z,47.80
2022-07-29T13:27:26.047Z,47.70
2022-07-29T13:29:57.646Z,47.00
2022-07-29T13:32:28.590Z,46.80
2022-07-29T13:34:59.892Z,46.10
2022-07-29T13:37:30.909Z,45.70
2022-07-29T13:40:00.389Z,45.40
2022-07-29T13:42:30.973Z,45.40
2022-07-29T13:44:59.796Z,45.10
2022-07-29T13:47:32.303Z,45.00
2022-07-29T13:50:02.175Z,44.90
2022-07-29T13:52:31.650Z,44.20
2022-07-29T13:55:00.590Z,44.20
2022-07-29T13:57:31.090Z,43.90
2022-07-29T14:00:00.006Z,43.80
2022-07-29T14:02:28.948Z,43.80
2022-07-29T14:04:57.856Z,44.00
2022-07-29T14:07:26.832Z,44.40
2022-07-29T14:09:55.568Z,44.60
2022-07-29T14:12:24.472Z,45.00
2022-07-29T14:14:54.795Z,45.30
2022-07-29T14:17:23.926Z,45.90
2022-07-29T14:19:52.816Z,45.90
2022-07-29T14:22:23.131Z,46.50
2022-07-29T14:24:54.513Z,46.70
2022-07-29T14:27:38.332Z,46.80
2022-07-29T14:30:11.334Z,47.10
2022-07-29T14:32:40.051Z,47.00
2022-07-29T14:35:10.133Z,47.50
2022-07-29T14:37:40.208Z,47.50
2022-07-29T14:40:11.811Z,47.40
2022-07-29T14:42:40.995Z,47.00
2022-07-29T14:45:12.219Z,46.60
2022-07-29T14:47:41.731Z,45.90
2022-07-29T14:50:11.929Z,46.10
2022-07-29T14:52:40.845Z,46.20
2022-07-29T14:55:19.488Z,46.50
2022-07-29T14:57:51.029Z,45.60
2022-07-29T15:00:21.935Z,46.10
2022-07-29T15:03:06.526Z,46.30
2022-07-29T15:05:40.052Z,46.50
2022-07-29T15:08:09.867Z,47.10
2022-07-29T15:10:38.983Z,48.60
2022-07-29T15:13:07.685Z,49.50
2022-07-29T15:15:37.938Z,50.20
2022-07-29T15:18:07.108Z,51.10
2022-07-29T15:20:36.210Z,51.90
2022-07-29T15:23:05.170Z,52.80
2022-07-29T15:25:37.341Z,54.10
2022-07-29T15:28:08.150Z,56.70
2022-07-29T15:30:41.876Z,57.50
2022-07-29T15:33:11.566Z,58.00
2022-07-29T15:35:40.902Z,59.90
2022-07-29T15:38:10.550Z,61.30
2022-07-29T15:40:42.315Z,62.00
2022-07-29T15:43:11.307Z,62.40
2022-07-29T15:46:03.488Z,63.40
2022-07-29T15:48:32.529Z,64.50
2022-07-29T15:51:01.989Z,65.50
2022-07-29T15:53:30.709Z,66.30
2022-07-29T15:55:59.391Z,66.90
2022-07-29T15:58:28.245Z,67.30
2022-07-29T16:00:58.978Z,68.00
2022-07-29T16:03:27.864Z,69.50
2022-07-29T16:05:57.389Z,71.10
2022-07-29T16:08:26.087Z,72.80
2022-07-29T16:10:54.974Z,73.30
2022-07-29T16:13:23.973Z,75.90
2022-07-29T16:16:02.071Z,75.90
2022-07-29T16:18:33.501Z,76.50
2022-07-29T16:21:02.380Z,76.60
2022-07-29T16:23:31.030Z,77.10
2022-07-29T16:26:01.212Z,78.00
2022-07-29T16:28:31.657Z,79.10
2022-07-29T16:31:00.563Z,80.50
2022-07-29T16:33:53.545Z,81.90
2022-07-29T16:36:20.619Z,82.70
2022-07-29T16:38:49.716Z,83.10
2022-07-29T16:41:18.623Z,83.10
2022-07-29T16:43:47.409Z,82.80
2022-07-29T16:46:18.628Z,83.20
2022-07-29T16:48:47.987Z,82.90
2022-07-29T16:51:18.762Z,81.70
2022-07-29T16:53:48.892Z,81.20
2022-07-29T16:56:19.153Z,81.50
2022-07-29T16:58:47.888Z,81.30
2022-07-29T17:01:17.275Z,81.30
2022-07-29T17:04:00.641Z,81.70
2022-07-29T17:06:32.287Z,81.20
2022-07-29T17:09:01.034Z,80.30
2022-07-29T17:11:53.271Z,79.60
2022-07-29T17:14:18.523Z,78.80
2022-07-29T17:17:01.132Z,77.90
2022-07-29T17:19:33.897Z,77.20
2022-07-29T17:22:14.328Z,76.60
2022-07-29T17:24:47.786Z,76.50
2022-07-29T17:27:17.015Z,76.10
2022-07-29T17:29:45.964Z,76.00
2022-07-29T17:32:15.106Z,75.90
2022-07-29T17:34:44.768Z,77.10
2022-07-29T17:37:14.879Z,77.90
2022-07-29T17:39:44.500Z,78.10
2022-07-29T17:42:15.488Z,78.70
2022-07-29T17:44:45.453Z,78.60
2022-07-29T17:47:16.164Z,78.60
2022-07-29T17:49:46.388Z,78.80
2022-07-29T17:52:18.469Z,78.50
2022-07-29T17:54:49.299Z,79.00
2022-07-29T17:57:18.048Z,78.50
2022-07-29T17:59:46.836Z,78.50
2022-07-29T18:02:15.598Z,78.10
2022-07-29T18:04:44.330Z,78.00
2022-07-29T18:07:13.042Z,77.80
2022-07-29T18:09:43.344Z,77.20
2022-07-29T18:12:12.152Z,76.80
2022-07-29T18:14:41.113Z,78.30
2022-07-29T18:17:09.914Z,77.30
2022-07-29T18:19:38.827Z,77.90
2022-07-29T18:22:08.535Z,78.10
2022-07-29T18:24:37.477Z,75.00
2022-07-29T18:27:08.007Z,74.80
2022-07-29T18:29:36.835Z,78.10
2022-07-29T18:32:06.740Z,79.10
2022-07-29T18:34:35.788Z,79.50
2022-07-29T18:37:04.542Z,79.10
2022-07-29T18:39:33.288Z,79.70
2022-07-29T18:42:01.948Z,80.70
2022-07-29T18:44:33.383Z,80.30
2022-07-29T18:47:12.526Z,81.20
2022-07-29T18:49:41.995Z,81.30
2022-07-29T18:52:11.068Z,81.20
2022-07-29T18:54:40.025Z,81.90
2022-07-29T18:57:55.014Z,82.30
2022-07-29T18:59:59.107Z,82.00
2022-07-29T19:02:28.462Z,88.50
2022-07-29T19:04:57.291Z,90.20
2022-07-29T19:07:27.032Z,92.00
2022-07-29T19:09:55.771Z,94.00
2022-07-29T19:12:24.534Z,96.00
2022-07-29T19:14:53.274Z,97.70
2022-07-29T19:17:24.081Z,98.80
2022-07-29T19:19:54.046Z,99.90
2022-07-29T19:22:23.306Z,99.90
2022-07-29T19:24:53.426Z,99.90
2022-07-29T19:27:22.165Z,99.90
2022-07-29T19:29:50.869Z,99.90
2022-07-29T19:32:25.000Z,99.90
2022-07-29T19:35:13.216Z,99.90
2022-07-29T19:37:41.974Z,99.90
2022-07-29T19:40:12.396Z,99.90
2022-07-29T19:42:41.122Z,99.90
2022-07-29T19:45:11.689Z,99.20
2022-07-29T19:47:40.427Z,99.20
2022-07-29T19:50:11.966Z,99.10
2022-07-29T19:52:40.796Z,98.60
2022-07-29T19:55:10.897Z,98.40
2022-07-29T19:57:41.162Z,98.80
2022-07-29T20:00:12.163Z,97.90
2022-07-29T20:02:41.930Z,99.70
2022-07-29T20:05:13.076Z,99.90
2022-07-29T20:07:42.193Z,99.90
2022-07-29T20:10:12.278Z,99.90
2022-07-29T20:12:42.828Z,99.90
2022-07-29T20:15:16.185Z,99.90
2022-07-29T20:17:45.454Z,99.90
2022-07-29T20:20:15.795Z,99.90
2022-07-29T20:22:44.766Z,99.90
2022-07-29T20:25:15.511Z,99.90
2022-07-29T20:27:44.255Z,99.90
2022-07-29T20:30:14.625Z,99.90
2022-07-29T20:32:43.519Z,99.90
2022-07-29T20:35:13.498Z,99.90
2022-07-29T20:37:52.163Z,99.90
2022-07-29T20:40:25.849Z,99.90
2022-07-29T20:42:55.182Z,99.90
2022-07-29T20:45:25.315Z,99.90
2022-07-29T20:47:54.476Z,99.90
2022-07-29T20:50:24.582Z,99.90
2022-07-29T20:52:54.990Z,99.90
2022-07-29T20:55:23.875Z,99.90
2022-07-29T20:57:52.659Z,99.90
2022-07-29T21:00:21.458Z,99.90
2022-07-29T21:02:50.161Z,99.90
2022-07-29T21:05:18.972Z,99.90
2022-07-29T21:07:47.704Z,99.90
2022-07-29T21:10:18.459Z,99.90
2022-07-29T21:12:48.042Z,99.90
2022-07-29T21:15:20.851Z,99.90
2022-07-29T21:17:52.124Z,99.90
2022-07-29T21:20:21.837Z,99.90
2022-07-29T21:22:50.558Z,99.60
2022-07-29T21:25:20.785Z,99.90
2022-07-29T21:28:09.835Z,99.90
2022-07-29T21:30:38.979Z,99.90
2022-07-29T21:33:07.630Z,99.90
2022-07-29T21:36:06.198Z,99.90
2022-07-29T21:38:25.416Z,99.90
2022-07-29T21:40:55.975Z,99.90
2022-07-29T21:43:26.688Z,99.90
2022-07-29T21:45:55.848Z,99.90
2022-07-29T21:48:26.872Z,99.90
2022-07-29T21:50:56.128Z,99.90
2022-07-29T21:53:26.856Z,99.90
2022-07-29T21:55:57.430Z,99.90
2022-07-29T21:58:26.337Z,99.90
2022-07-29T22:00:55.143Z,99.90
2022-07-29T22:03:24.140Z,99.90
2022-07-29T22:05:53.349Z,99.90
2022-07-29T22:08:22.011Z,99.90
2022-07-29T22:10:50.768Z,99.90
2022-07-29T22:13:20.840Z,99.90
2022-07-29T22:15:49.545Z,99.90
2022-07-29T22:18:20.402Z,99.90
2022-07-29T22:20:50.326Z,99.90
2022-07-29T22:23:19.067Z,99.90
2022-07-29T22:25:47.760Z,99.90
2022-07-29T22:28:16.595Z,99.90
2022-07-29T22:30:46.827Z,99.90
2022-07-29T22:33:17.468Z,99.90
2022-07-29T22:35:48.860Z,99.90
2022-07-29T22:38:18.160Z,99.90
2022-07-29T22:40:48.604Z,99.90
2022-07-29T22:43:19.279Z,99.90
2022-07-29T22:45:49.300Z,99.90
2022-07-29T22:48:18.265Z,99.90
2022-07-29T22:50:46.923Z,99.90
2022-07-29T22:53:15.600Z,99.90
2022-07-29T22:55:44.355Z,99.90
2022-07-29T22:58:13.279Z,99.90
2022-07-29T23:00:42.251Z,99.90
2022-07-29T23:03:12.424Z,99.90
2022-07-29T23:05:41.123Z,99.90
2022-07-29T23:08:09.823Z,99.90
2022-07-29T23:10:38.528Z,99.90
2022-07-29T23:13:07.470Z,99.90
2022-07-29T23:15:36.110Z,99.90
2022-07-29T23:18:05.091Z,99.90
2022-07-29T23:20:35.569Z,99.90
2022-07-29T23:23:04.416Z,99.90
2022-07-29T23:25:33.712Z,99.90
2022-07-29T23:28:02.607Z,99.90
2022-07-29T23:30:31.949Z,99.90
2022-07-29T23:33:00.894Z,99.90
2022-07-29T23:35:29.636Z,99.90
2022-07-29T23:37:59.859Z,99.90
2022-07-29T23:40:29.150Z,99.90
2022-07-29T23:42:57.854Z,99.90
2022-07-29T23:45:39.928Z,99.90
2022-07-29T23:48:14.737Z,99.90
2022-07-29T23:50:43.724Z,99.90
2022-07-29T23:53:13.911Z,99.90
2022-07-29T23:55:42.573Z,99.90
2022-07-29T23:58:11.328Z,99.90
